Time;durP1;ratioP1;P1;durP2;ratioP2;P2;SDS_P1;SDS_P2;PMS_P1;PMS_P2;Temp;Humidity;BMP_temperature;BMP_pressure;BME280_temperature;BME280_humidity;BME280_pressure;Samples;Min_cycle;Max_cycle;Signal;HPM_P1;HPM_P2
2022/05/25 00:02:26;;;;;;;5.60;1.90;;;;;;;6.76;59.15;99206.63;5031379;28;20091;-57
2022/05/25 00:04:53;;;;;;;4.97;1.55;;;;;;;6.73;59.33;99196.38;5031170;28;20049;-58
2022/05/25 00:07:19;;;;;;;7.82;1.98;;;;;;;6.70;59.81;99203.34;5031165;28;20037;-57
2022/05/25 00:09:45;;;;;;;5.50;1.83;;;;;;;6.65;59.64;99194.88;5031457;28;20052;-59
2022/05/25 00:12:13;;;;;;;3.88;1.52;;;;;;;6.63;59.77;99207.84;5030478;28;20060;-59
2022/05/25 00:14:39;;;;;;;4.03;1.50;;;;;;;6.57;59.87;99202.84;5030681;28;20508;-56
2022/05/25 00:17:05;;;;;;;4.63;2.33;;;;;;;6.51;59.72;99208.16;5022354;28;20040;-56
2022/05/25 00:22:16;;;;;;;6.82;3.20;;;;;;;6.42;59.91;99203.22;5030779;28;20512;-57
2022/05/25 00:24:42;;;;;;;5.03;2.65;;;;;;;6.35;60.07;99205.13;5032198;28;20049;-56
2022/05/25 00:27:08;;;;;;;7.70;3.00;;;;;;;6.21;60.41;99193.44;5031023;28;20041;-57
2022/05/25 00:29:34;;;;;;;8.70;3.40;;;;;;;6.28;60.81;99211.31;5030501;28;20135;-57
2022/05/25 00:31:59;;;;;;;9.48;2.75;;;;;;;6.26;60.56;99222.56;5031645;28;20083;-57
2022/05/25 00:34:25;;;;;;;9.18;3.00;;;;;;;6.22;61.48;99216.66;5031979;28;20470;-58
2022/05/25 00:36:52;;;;;;;5.80;2.40;;;;;;;6.20;61.71;99220.13;5030475;28;20429;-56
2022/05/25 00:39:17;;;;;;;10.85;2.45;;;;;;;6.16;61.19;99224.53;5031663;28;20045;-57
2022/05/25 00:41:43;;;;;;;8.63;2.63;;;;;;;6.03;61.67;99205.03;5031532;28;20048;-58
2022/05/25 00:44:09;;;;;;;6.22;2.50;;;;;;;6.12;61.74;99224.63;5031664;28;20033;-58
2022/05/25 00:46:36;;;;;;;6.30;2.13;;;;;;;6.10;62.17;99226.41;5031614;28;20574;-57
2022/05/25 00:49:23;;;;;;;8.40;2.80;;;;;;;5.98;61.86;99212.03;5029867;28;21541;-57
2022/05/25 00:51:55;;;;;;;4.88;2.13;;;;;;;6.07;62.04;99234.22;5031207;28;20045;-58
2022/05/25 00:54:27;;;;;;;6.28;1.90;;;;;;;6.07;61.78;99232.47;5002829;28;20069;-55
2022/05/25 00:56:55;;;;;;;4.32;2.00;;;;;;;6.08;62.48;99239.31;4996839;28;20553;-58
2022/05/25 00:59:26;;;;;;;4.63;1.70;;;;;;;6.09;62.50;99237.59;5030977;28;20049;-57
2022/05/25 01:01:52;;;;;;;3.88;1.80;;;;;;;6.07;62.33;99240.19;5009528;28;20037;-56
2022/05/25 01:04:18;;;;;;;3.45;1.80;;;;;;;6.08;62.00;99241.06;5030805;28;20053;-58
2022/05/25 01:06:56;;;;;;;5.50;2.05;;;;;;;6.08;62.69;99233.31;5029900;28;20115;-57
2022/05/25 01:09:42;;;;;;;4.45;1.80;;;;;;;6.09;62.87;99238.44;5029645;28;20045;-58
2022/05/25 01:12:45;;;;;;;6.47;1.70;;;;;;;5.97;62.69;99217.25;5029931;28;20110;-58
2022/05/25 01:15:27;;;;;;;4.10;1.63;;;;;;;6.07;62.86;99235.03;5017744;28;20472;-58
2022/05/25 01:18:11;;;;;;;3.85;1.60;;;;;;;6.06;62.64;99233.38;5029805;28;20048;-56
2022/05/25 01:20:45;;;;;;;3.60;1.60;;;;;;;6.02;63.05;99234.31;5030833;28;20052;-57
2022/05/25 01:23:39;;;;;;;4.95;1.70;;;;;;;6.01;62.70;99245.53;5030643;28;20429;-57
2022/05/25 01:26:16;;;;;;;4.70;2.10;;;;;;;5.97;62.67;99236.16;5029611;28;20040;-55
2022/05/25 01:29:16;;;;;;;5.88;2.08;;;;;;;5.94;63.10;99244.81;5030418;28;20564;-56
2022/05/25 01:31:44;;;;;;;;;;;;;;;5.94;63.22;99247.41;5031214;28;20083;-57
2022/05/25 01:34:34;;;;;;;4.25;1.88;;;;;;;5.92;62.64;99244.00;5029695;28;19925;-57
2022/05/25 01:37:21;;;;;;;4.78;1.90;;;;;;;5.91;62.97;99247.44;5023855;28;20037;-56
2022/05/25 01:40:24;;;;;;;6.57;1.80;;;;;;;5.91;63.50;99251.78;5030145;28;20033;-55
2022/05/25 01:42:57;;;;;;;5.72;1.92;;;;;;;5.92;63.01;99259.47;5022852;28;20045;-57
2022/05/25 01:45:25;;;;;;;4.60;1.77;;;;;;;5.93;63.04;99260.31;5029391;28;20064;-57
2022/05/25 01:47:52;;;;;;;5.00;1.70;;;;;;;5.93;63.49;99261.19;5028866;28;20096;-57
2022/05/25 01:50:28;;;;;;;4.10;2.28;;;;;;;5.87;63.80;99248.41;5044248;28;20033;-59
2022/05/25 01:52:57;;;;;;;4.38;2.17;;;;;;;5.85;63.87;99250.16;5012906;28;20049;-58
2022/05/25 01:55:29;;;;;;;6.72;1.90;;;;;;;5.98;63.44;99266.22;5030536;28;20072;-56
2022/05/25 01:57:58;;;;;;;4.90;1.70;;;;;;;5.99;63.40;99270.50;5022629;28;20071;-57
2022/05/25 02:00:46;;;;;;;4.22;1.83;;;;;;;6.02;63.80;99274.78;5013012;28;20047;-58
2022/05/25 02:06:05;;;;;;;3.17;2.00;;;;;;;6.08;63.95;99272.03;5012742;28;20132;-57
2022/05/25 02:09:00;;;;;;;5.07;2.08;;;;;;;6.08;63.92;99285.78;5030250;28;20424;-59
2022/05/25 02:11:35;;;;;;;8.18;2.08;;;;;;;6.03;64.18;99274.72;5012263;28;20056;-57
2022/05/25 02:14:27;;;;;;;4.00;2.10;;;;;;;6.08;63.69;99275.44;5031630;28;20052;-56
2022/05/25 02:17:01;;;;;;;3.63;1.60;;;;;;;6.11;63.88;99283.16;5033144;28;20595;-58
2022/05/25 02:19:39;;;;;;;3.40;1.73;;;;;;;6.12;64.33;99279.69;5034123;28;20045;-56
2022/05/25 02:22:22;;;;;;;2.88;1.48;;;;;;;6.15;64.38;99286.50;5032971;28;20423;-57
2022/05/25 02:25:15;;;;;;;5.47;1.77;;;;;;;6.14;64.41;99283.06;5033217;28;20041;-56
2022/05/25 02:27:52;;;;;;;3.53;1.80;;;;;;;6.08;64.38;99270.28;5033989;28;20034;-58
2022/05/25 02:30:19;;;;;;;4.50;1.70;;;;;;;6.15;64.45;99277.03;5034230;28;20068;-57
2022/05/25 02:33:28;;;;;;;4.40;1.60;;;;;;;6.08;64.53;99264.28;5016174;28;20069;-57
2022/05/25 02:35:54;;;;;;;4.27;1.70;;;;;;;6.20;64.14;99288.09;5011868;28;20041;-57
2022/05/25 02:38:20;;;;;;;3.13;1.40;;;;;;;6.23;64.04;99280.25;4995517;28;20042;-57
2022/05/25 02:40:46;;;;;;;2.40;1.52;;;;;;;6.08;64.58;99259.97;5012628;28;20049;-58
2022/05/25 02:43:12;;;;;;;5.13;1.55;;;;;;;6.29;64.51;99285.28;5032910;28;20063;-58
2022/05/25 02:45:39;;;;;;;4.32;1.25;;;;;;;6.35;64.02;99282.56;5033887;28;20049;-58
2022/05/25 02:48:06;;;;;;;2.55;1.52;;;;;;;6.40;63.79;99285.03;5033266;28;20072;-57
2022/05/25 02:50:32;;;;;;;2.38;1.50;;;;;;;6.43;64.00;99278.97;5033821;28;20057;-57
2022/05/25 02:52:58;;;;;;;4.00;1.88;;;;;;;6.46;63.76;99276.28;5033700;28;20128;-59
2022/05/25 02:55:24;;;;;;;5.80;1.70;;;;;;;6.54;64.13;99279.56;5032287;28;20398;-56
2022/05/25 02:57:50;;;;;;;3.78;1.83;;;;;;;6.59;63.44;99273.38;5033477;28;20120;-58
2022/05/25 03:00:16;;;;;;;3.85;1.70;;;;;;;6.66;63.77;99272.34;5031661;28;20528;-57
2022/05/25 03:02:42;;;;;;;3.60;1.90;;;;;;;6.70;62.97;99275.69;5033535;28;20072;-56
2022/05/25 03:05:09;;;;;;;6.13;3.25;;;;;;;6.72;63.04;99269.59;5033004;28;20447;-57
2022/05/25 03:07:36;;;;;;;2.72;1.73;;;;;;;6.74;62.91;99274.75;5033289;28;20052;-58
2022/05/25 03:10:04;;;;;;;3.70;1.55;;;;;;;6.77;63.09;99270.31;5033360;28;20041;-57
2022/05/25 03:12:29;;;;;;;3.22;1.40;;;;;;;6.76;62.89;99265.19;5033107;28;20049;-56
2022/05/25 03:14:55;;;;;;;2.53;1.45;;;;;;;6.86;62.65;99281.31;5033583;28;20053;-58
2022/05/25 03:17:21;;;;;;;2.58;1.40;;;;;;;6.82;62.66;99265.03;5032649;28;20067;-56
2022/05/25 03:19:52;;;;;;;2.22;1.20;;;;;;;6.95;62.05;99275.91;5033256;28;20048;-55
2022/05/25 03:22:18;;;;;;;2.28;1.38;;;;;;;7.00;62.04;99281.81;5031891;28;20098;-56
2022/05/25 03:24:44;;;;;;;4.28;1.35;;;;;;;7.00;61.93;99259.41;5032394;28;20049;-58
2022/05/25 03:27:10;;;;;;;2.40;1.40;;;;;;;7.14;61.37;99277.13;5033103;28;20037;-59
2022/05/25 03:29:35;;;;;;;3.20;1.50;;;;;;;7.16;61.31;99276.19;5032663;28;20052;-57
2022/05/25 03:32:01;;;;;;;2.95;1.55;;;;;;;7.23;61.65;99289.78;5015253;28;20045;-55
2022/05/25 03:34:27;;;;;;;2.67;1.58;;;;;;;7.28;60.73;99289.66;5044239;28;20437;-56
2022/05/25 03:36:56;;;;;;;3.75;1.75;;;;;;;7.30;60.65;99278.41;5031545;28;20159;-57
2022/05/25 03:39:23;;;;;;;2.90;1.42;;;;;;;7.39;60.61;99285.03;5031387;28;20068;-57
2022/05/25 03:41:58;;;;;;;2.42;1.42;;;;;;;7.45;60.70;99290.91;5032759;28;20504;-56
2022/05/25 03:44:24;;;;;;;7.53;1.52;;;;;;;7.49;59.90;99287.31;5031560;28;20099;-58
2022/05/25 03:46:51;;;;;;;10.27;2.00;;;;;;;7.53;59.73;99294.13;5032266;28;20049;-56
2022/05/25 03:49:17;;;;;;;3.15;1.90;;;;;;;7.56;59.22;99290.59;5032636;28;20504;-55
2022/05/25 03:51:43;;;;;;;3.65;1.25;;;;;;;7.56;59.22;99283.69;5031450;28;20041;-58
2022/05/25 03:54:09;;;;;;;8.05;1.90;;;;;;;7.66;59.04;99289.44;5032115;28;20067;-53
2022/05/25 03:56:35;;;;;;;3.38;1.33;;;;;;;7.71;58.97;99295.31;5031200;28;20057;-57
2022/05/25 03:59:01;;;;;;;3.70;1.60;;;;;;;7.77;58.63;99292.56;5032302;28;20072;-57
2022/05/25 04:01:27;;;;;;;3.92;2.17;;;;;;;7.82;58.09;99284.66;5032160;28;20508;-59
2022/05/25 04:03:53;;;;;;;6.97;2.95;;;;;;;7.86;57.78;99281.94;5032225;28;20045;-57
2022/05/25 04:06:19;;;;;;;3.38;1.45;;;;;;;7.80;57.75;99270.94;5022989;28;20115;-58
2022/05/25 04:08:44;;;;;;;3.80;1.60;;;;;;;7.96;57.38;99287.69;5032099;28;20099;-57
2022/05/25 04:11:11;;;;;;;2.78;1.80;;;;;;;7.97;57.26;99281.59;5030873;28;20509;-58
2022/05/25 04:13:37;;;;;;;6.47;2.00;;;;;;;8.04;56.86;99290.91;5031919;28;20072;-58
2022/05/25 04:16:04;;;;;;;5.22;1.77;;;;;;;8.11;56.71;99292.41;5031945;28;20045;-59
2022/05/25 04:18:29;;;;;;;3.55;2.17;;;;;;;8.09;56.22;99281.25;5032177;28;20037;-59
2022/05/25 04:20:55;;;;;;;2.92;1.60;;;;;;;8.21;56.46;99298.16;5030752;28;20132;-54
2022/05/25 04:23:22;;;;;;;2.42;1.60;;;;;;;8.27;55.73;99293.59;5032147;28;20045;-58
2022/05/25 04:25:48;;;;;;;4.78;1.70;;;;;;;8.25;55.33;99271.25;5031232;28;20045;-58
2022/05/25 04:28:14;;;;;;;3.92;2.00;;;;;;;8.44;55.02;99293.97;5031868;28;20536;-59
2022/05/25 04:30:39;;;;;;;3.53;1.55;;;;;;;8.56;54.51;99291.88;5030528;28;20064;-59
2022/05/25 04:33:05;;;;;;;4.82;1.70;;;;;;;8.66;53.98;99291.53;5032074;28;20052;-59
2022/05/25 04:35:31;;;;;;;4.80;1.77;;;;;;;8.68;53.42;99283.72;5031537;28;20473;-59
2022/05/25 04:37:57;;;;;;;2.92;1.60;;;;;;;8.87;53.83;99300.34;5030788;28;20536;-58
2022/05/25 04:40:25;;;;;;;2.08;1.48;;;;;;;8.96;53.07;99305.22;5031572;28;20065;-58
2022/05/25 04:42:52;;;;;;;2.97;1.33;;;;;;;9.05;52.55;99294.53;5031866;28;20103;-58
2022/05/25 04:45:18;;;;;;;2.05;1.17;;;;;;;9.24;51.75;99310.31;5030781;28;20429;-58
2022/05/25 04:47:44;;;;;;;29.90;3.28;;;;;;;9.37;50.41;99288.19;5031201;28;20140;-57
2022/05/25 04:50:13;;;;;;;4.28;1.45;;;;;;;9.66;49.88;99298.41;5031221;28;21576;-58
2022/05/25 04:52:39;;;;;;;3.43;1.20;;;;;;;9.90;48.92;99301.81;5031268;28;20060;-56
2022/05/25 04:55:07;;;;;;;2.30;0.98;;;;;;;10.05;47.23;99302.97;5029872;28;20083;-59
2022/05/25 04:57:33;;;;;;;1.00;0.80;;;;;;;10.13;45.09;99312.19;5030708;28;20111;-58
2022/05/25 05:00:02;;;;;;;2.90;0.90;;;;;;;10.30;44.98;99311.56;5031212;28;20041;-57
2022/05/25 05:02:30;;;;;;;1.85;1.00;;;;;;;10.46;43.71;99311.81;5029849;28;20055;-58
2022/05/25 05:04:56;;;;;;;2.90;1.45;;;;;;;10.67;43.06;99318.75;5021679;28;20044;-59
2022/05/25 05:07:33;;;;;;;1.42;1.02;;;;;;;10.86;42.61;99319.69;5031068;28;20041;-57
2022/05/25 05:10:01;;;;;;;1.80;1.30;;;;;;;10.96;41.95;99322.75;5030558;28;20041;-58
2022/05/25 05:12:28;;;;;;;2.58;1.10;;;;;;;11.14;42.39;99310.72;5030917;28;20091;-57
2022/05/25 05:14:54;;;;;;;3.05;1.40;;;;;;;11.46;42.10;99305.81;5030609;28;20456;-57
2022/05/25 05:17:20;;;;;;;2.67;1.60;;;;;;;11.76;41.32;99301.03;5030785;28;20048;-58
2022/05/25 05:20:02;;;;;;;3.13;0.98;;;;;;;12.21;40.89;99313.69;5029435;28;20041;-57
2022/05/25 05:22:29;;;;;;;3.22;1.30;;;;;;;12.43;40.58;99310.06;5029333;28;20044;-56
2022/05/25 05:24:55;;;;;;;2.28;1.58;;;;;;;12.49;40.24;99310.63;5030188;28;20041;-59
2022/05/25 05:27:20;;;;;;;2.92;2.17;;;;;;;12.48;40.11;99313.31;5029196;28;20033;-58
2022/05/25 05:29:46;;;;;;;5.05;1.33;;;;;;;12.51;40.28;99306.19;5030636;28;20065;-58
2022/05/25 05:32:12;;;;;;;1.77;1.17;;;;;;;12.48;39.73;99308.09;5030524;28;20052;-58
2022/05/25 05:34:38;;;;;;;3.92;1.50;;;;;;;12.38;39.50;99294.66;5029299;28;20061;-55
2022/05/25 05:37:07;;;;;;;1.98;1.25;;;;;;;12.05;39.47;99302.28;5030234;28;20072;-57
2022/05/25 05:39:34;;;;;;;;;;;;;;;11.78;40.08;99312.22;5036700;28;20544;-56
2022/05/25 05:42:11;;;;;;;1.45;1.02;;;;;;;11.48;40.48;99310.94;5009571;28;20289;-58
2022/05/25 05:44:41;;;;;;;4.68;1.30;;;;;;;11.23;40.91;99305.13;5023721;28;20041;-59
2022/05/25 05:47:07;;;;;;;;;;;;;;;11.18;40.89;99301.88;5029586;28;20046;-58
2022/05/25 05:49:35;;;;;;;1.30;1.02;;;;;;;11.12;41.07;99289.13;5028709;28;19944;-58
2022/05/25 05:52:01;;;;;;;3.72;1.58;;;;;;;11.33;41.10;99299.44;5009540;28;20453;-58
2022/05/25 05:54:27;;;;;;;3.33;1.60;;;;;;;11.44;41.20;99296.38;5029631;28;20055;-58
2022/05/25 05:56:53;;;;;;;3.05;1.60;;;;;;;11.56;40.90;99303.66;5030315;28;20064;-55
2022/05/25 05:59:20;;;;;;;3.28;1.70;;;;;;;11.68;40.85;99292.69;5028759;28;20064;-59
2022/05/25 06:01:47;;;;;;;41.28;15.20;;;;;;;11.74;40.90;99292.44;5034958;28;20041;-57
2022/05/25 06:04:13;;;;;;;3.85;1.60;;;;;;;11.79;40.20;99282.66;5030357;28;20464;-58
2022/05/25 06:06:39;;;;;;;2.70;1.15;;;;;;;11.82;40.30;99279.94;5030098;28;20041;-58
2022/05/25 06:09:05;;;;;;;4.35;1.50;;;;;;;11.93;40.39;99284.66;5030174;28;20037;-57
2022/05/25 06:11:32;;;;;;;4.82;1.48;;;;;;;12.12;39.70;99289.84;5028592;28;20056;-60
2022/05/25 06:13:58;;;;;;;2.20;1.30;;;;;;;12.08;38.80;99270.91;5028983;28;20033;-59
2022/05/25 06:19:26;;;;;;;2.38;1.17;;;;;;;12.63;38.60;99286.50;5029484;28;20041;-60
2022/05/25 06:21:58;;;;;;;2.85;1.35;;;;;;;13.03;38.10;99283.56;5029930;28;20053;-58
2022/05/25 06:24:25;;;;;;;1.88;1.10;;;;;;;13.35;37.24;99275.88;5030208;28;20045;-57
2022/05/25 06:26:50;;;;;;;2.55;1.23;;;;;;;13.63;36.92;99288.34;5029801;28;20041;-58
2022/05/25 06:29:17;;;;;;;1.80;1.40;;;;;;;14.00;36.61;99286.28;5029993;28;20122;-59
2022/05/25 06:31:43;;;;;;;3.30;1.30;;;;;;;14.26;36.41;99271.78;5027731;28;20520;-57
2022/05/25 06:34:09;;;;;;;2.53;1.10;;;;;;;14.33;36.28;99280.97;5029393;28;20029;-59
2022/05/25 06:36:35;;;;;;;3.47;1.17;;;;;;;14.21;36.05;99299.13;4992581;28;20077;-59
2022/05/25 06:39:01;;;;;;;2.10;1.30;;;;;;;13.88;35.95;99299.16;5028557;28;20041;-58
2022/05/25 06:41:28;;;;;;;2.03;1.50;;;;;;;13.62;36.41;99297.09;5012350;28;20511;-57
2022/05/25 06:43:54;;;;;;;2.45;1.48;;;;;;;13.46;36.30;99297.91;5029805;28;20127;-59
2022/05/25 06:46:20;;;;;;;2.25;1.30;;;;;;;13.43;36.57;99297.25;5020976;28;20048;-59
2022/05/25 06:48:50;;;;;;;1.50;1.20;;;;;;;13.14;36.56;99294.34;5028116;28;20056;-58
2022/05/25 06:51:21;;;;;;;2.30;1.10;;;;;;;12.98;36.53;99290.78;5026980;28;20069;-59
2022/05/25 06:53:49;;;;;;;2.90;1.38;;;;;;;13.21;36.23;99300.09;5027077;28;20044;-58
2022/05/25 06:56:19;;;;;;;4.57;1.75;;;;;;;14.39;35.32;99298.94;5025098;28;21466;-55
2022/05/25 06:58:46;;;;;;;5.45;1.63;;;;;;;14.99;33.89;99287.69;5029108;28;20128;-58
2022/05/25 07:01:12;;;;;;;1.30;1.10;;;;;;;15.05;34.17;99298.66;5030805;28;20057;-57
2022/05/25 07:03:38;;;;;;;2.20;1.45;;;;;;;15.57;33.42;99303.44;5032857;28;20041;-59
2022/05/25 07:06:05;;;;;;;4.53;1.13;;;;;;;17.31;30.98;99273.72;5032830;28;20045;-58
2022/05/25 07:08:31;;;;;;;2.28;0.82;;;;;;;18.28;29.41;99292.31;5031417;28;20094;-59
2022/05/25 07:10:57;;;;;;;1.48;1.13;;;;;;;20.59;26.86;99298.22;5033030;28;20061;-59
2022/05/25 07:13:25;;;;;;;1.50;1.05;;;;;;;22.83;24.24;99298.25;5031355;28;20045;-59
2022/05/25 07:15:55;;;;;;;2.22;1.50;;;;;;;21.78;24.76;99284.56;5032425;28;20068;-58
2022/05/25 07:18:22;;;;;;;4.00;2.75;;;;;;;23.07;23.38;99280.94;5032961;28;20519;-60
2022/05/25 07:20:48;;;;;;;1.85;1.20;;;;;;;25.47;20.76;99288.53;5030868;28;20044;-58
2022/05/25 07:23:24;;;;;;;2.72;1.13;;;;;;;27.34;19.38;99283.56;5029901;28;20424;-58
2022/05/25 07:25:49;;;;;;;2.20;1.35;;;;;;;28.54;18.02;99282.47;5032124;28;20041;-59
2022/05/25 07:28:16;;;;;;;4.22;2.28;;;;;;;29.44;17.31;99278.13;5028578;28;20079;-59
2022/05/25 07:30:44;;;;;;;3.63;1.50;;;;;;;30.58;16.21;99280.25;5031874;28;20037;-59
2022/05/25 07:33:10;;;;;;;10.93;1.60;;;;;;;29.52;17.07;99295.97;5031623;28;20316;-58
2022/05/25 07:35:36;;;;;;;5.22;1.23;;;;;;;27.42;18.60;99290.75;5031751;28;20488;-58
2022/05/25 07:38:03;;;;;;;1.88;1.23;;;;;;;24.96;20.05;99282.19;5032191;28;20057;-60
2022/05/25 07:40:33;;;;;;;2.97;1.10;;;;;;;23.10;21.65;99287.75;5032263;28;20053;-58
2022/05/25 07:43:04;;;;;;;6.75;1.40;;;;;;;21.97;22.57;99283.88;5031449;28;20045;-61
2022/05/25 07:45:30;;;;;;;3.78;1.27;;;;;;;21.25;23.29;99285.72;5031277;28;20048;-59
2022/05/25 07:47:56;;;;;;;4.55;1.13;;;;;;;20.27;23.85;99269.13;5032100;28;20049;-61
2022/05/25 07:50:23;;;;;;;1.20;0.90;;;;;;;19.62;24.78;99280.47;5032547;28;20424;-61
2022/05/25 07:52:51;;;;;;;1.83;1.10;;;;;;;19.21;25.18;99283.59;5032348;28;20053;-60
2022/05/25 07:55:20;;;;;;;2.40;1.08;;;;;;;19.00;25.50;99283.44;5013984;28;20540;-59
2022/05/25 07:57:46;;;;;;;1.20;1.10;;;;;;;18.65;25.73;99285.22;5014410;28;20049;-59
2022/05/25 08:00:12;;;;;;;3.25;1.30;;;;;;;19.84;24.92;99284.88;5030821;28;20047;-60
2022/05/25 08:05:49;;;;;;;2.03;1.20;;;;;;;25.98;18.85;99283.16;5029916;28;20139;-57
2022/05/25 08:08:18;;;;;;;5.03;2.90;;;;;;;27.76;17.64;99295.84;5028480;28;20037;-59
2022/05/25 08:10:48;;;;;;;1.30;1.00;;;;;;;27.62;16.54;99285.88;5027200;28;20063;-60
2022/05/25 08:13:17;;;;;;;2.60;1.20;;;;;;;26.10;18.24;99291.72;5026924;28;20045;-59
2022/05/25 08:15:44;;;;;;;1.88;1.30;;;;;;;24.81;19.70;99288.97;5040544;28;20037;-55
2022/05/25 08:18:11;;;;;;;2.03;1.30;;;;;;;23.91;20.23;99300.44;5027125;28;20033;-55
2022/05/25 08:20:37;;;;;;;3.17;1.23;;;;;;;22.53;21.64;99284.13;5030842;28;20053;-60
2022/05/25 08:23:08;;;;;;;2.70;1.92;;;;;;;20.68;23.27;99285.09;5025770;28;20038;-61
2022/05/25 08:25:35;;;;;;;2.40;1.20;;;;;;;19.26;25.12;99256.94;5031043;28;20103;-55
2022/05/25 08:28:02;;;;;;;2.78;1.58;;;;;;;19.10;25.60;99282.78;5023208;28;20038;-57
2022/05/25 08:30:28;;;;;;;4.35;1.63;;;;;;;19.63;25.44;99287.41;5030189;28;20045;-59
2022/05/25 08:32:54;;;;;;;2.63;1.30;;;;;;;22.49;22.77;99288.03;5031568;28;20143;-57
2022/05/25 08:35:19;;;;;;;6.03;2.78;;;;;;;25.15;20.05;99281.97;5029801;28;20045;-59
2022/05/25 08:37:46;;;;;;;3.42;2.40;;;;;;;27.35;17.96;99295.09;5029115;28;20057;-60
2022/05/25 08:40:14;;;;;;;3.10;2.55;;;;;;;28.96;16.66;99290.06;5031434;28;20159;-57
2022/05/25 08:42:59;;;;;;;7.88;4.45;;;;;;;30.27;15.19;99283.19;5010716;28;20553;-60
2022/05/25 08:45:33;;;;;;;2.35;1.70;;;;;;;31.10;14.52;99285.34;5024564;28;20041;-58
2022/05/25 08:48:00;;;;;;;1.67;1.58;;;;;;;31.87;14.04;99287.97;5029715;28;20099;-59
2022/05/25 08:50:29;;;;;;;2.00;1.63;;;;;;;32.61;13.50;99280.81;5062355;28;20724;-60
2022/05/25 08:52:57;;;;;;;1.77;1.17;;;;;;;31.66;13.23;99288.06;5027379;28;20571;-59
2022/05/25 08:55:35;;;;;;;1.85;1.35;;;;;;;28.48;15.57;99277.84;5024333;28;20501;-58
2022/05/25 08:58:03;;;;;;;4.53;1.70;;;;;;;27.62;16.47;99270.69;5026533;28;20054;-56
2022/05/25 09:00:29;;;;;;;1.60;1.50;;;;;;;29.23;15.37;99275.28;5026320;28;20034;-58
2022/05/25 09:03:08;;;;;;;1.70;1.60;;;;;;;30.72;13.95;99264.09;5029292;28;20116;-57
2022/05/25 09:05:42;;;;;;;2.83;1.70;;;;;;;32.54;13.22;99271.09;5044329;28;20041;-56
2022/05/25 09:08:27;;;;;;;5.43;1.52;;;;;;;32.45;13.12;99266.94;5012935;28;20041;-52
2022/05/25 09:11:03;;;;;;;2.45;1.33;;;;;;;29.50;15.20;99268.53;5023888;28;20490;-52
2022/05/25 09:13:38;;;;;;;2.88;1.40;;;;;;;27.47;16.70;99260.84;5030608;28;20174;-48
2022/05/25 09:16:16;;;;;;;3.70;1.55;;;;;;;26.65;17.59;99262.69;5030028;28;20042;-51
2022/05/25 09:18:48;;;;;;;;;;;;;;;28.11;16.14;99265.97;5053610;28;20393;-55
2022/05/25 09:21:20;;;;;;;5.43;2.35;;;;;;;30.57;14.45;99268.69;5030770;28;20303;-56
2022/05/25 09:23:46;;;;;;;2.40;2.00;;;;;;;32.26;12.74;99277.41;5035792;28;20056;-55
2022/05/25 09:26:13;;;;;;;7.10;1.90;;;;;;;33.47;12.43;99275.53;5028915;28;20053;-54
2022/05/25 09:28:42;;;;;;;3.10;2.40;;;;;;;34.07;11.65;99274.38;5028246;28;20048;-51
2022/05/25 09:31:11;;;;;;;1.45;1.10;;;;;;;32.74;12.00;99264.72;5026618;28;20048;-47
2022/05/25 09:33:57;;;;;;;1.30;1.20;;;;;;;30.35;13.76;99261.63;5027034;28;20045;-50
2022/05/25 09:36:30;;;;;;;2.95;1.17;;;;;;;28.42;15.00;99257.97;5026131;28;20094;-47
2022/05/25 09:39:16;;;;;;;2.35;1.73;;;;;;;26.92;15.89;99261.56;5028001;28;20041;-49
2022/05/25 09:41:45;;;;;;;1.42;1.33;;;;;;;25.86;17.06;99251.63;5026317;28;20045;-53
2022/05/25 09:44:18;;;;;;;3.47;1.58;;;;;;;25.52;17.61;99247.13;5028263;28;20085;-56
2022/05/25 09:46:52;;;;;;;2.33;1.35;;;;;;;25.13;18.19;99246.69;5027614;28;20045;-55
2022/05/25 09:49:37;;;;;;;2.03;1.35;;;;;;;24.35;18.74;99252.81;5024750;28;20076;-59
2022/05/25 09:52:15;;;;;;;4.43;1.17;;;;;;;23.73;19.54;99242.94;5029956;28;20114;-59
2022/05/25 09:54:48;;;;;;;5.20;1.65;;;;;;;26.05;17.62;99254.88;5029007;28;20505;-60
2022/05/25 09:57:25;;;;;;;3.05;1.33;;;;;;;27.96;16.12;99249.00;5028416;28;20529;-58
2022/05/25 10:00:00;;;;;;;2.50;1.30;;;;;;;27.54;15.84;99237.81;5028586;28;20484;-54
2022/05/25 10:02:29;;;;;;;1.60;1.50;;;;;;;27.58;16.18;99247.97;5028663;28;20052;-54
2022/05/25 10:04:57;;;;;;;2.97;1.67;;;;;;;29.57;14.95;99235.47;5028491;28;20496;-55
2022/05/25 10:07:30;;;;;;;3.10;1.65;;;;;;;31.24;13.53;99244.13;5022662;28;20082;-56
2022/05/25 10:10:01;;;;;;;2.95;1.70;;;;;;;32.41;13.17;99238.72;5026439;28;20048;-54
2022/05/25 10:12:31;;;;;;;1.85;1.40;;;;;;;32.15;13.24;99232.25;5026603;28;20053;-53
2022/05/25 10:15:00;;;;;;;3.15;1.50;;;;;;;30.31;14.34;99234.34;5023635;28;20068;-56
2022/05/25 10:17:46;;;;;;;;;;;;;;;29.05;15.19;99228.25;5026856;28;20165;-55
2022/05/25 10:20:53;;;;;;;2.92;1.80;;;;;;;30.95;13.96;99223.63;5024820;28;19956;-51
2022/05/25 10:23:22;;;;;;;3.80;1.90;;;;;;;30.95;14.19;99230.84;5015331;28;20428;-54
2022/05/25 10:25:53;;;;;;;2.00;1.67;;;;;;;32.38;13.30;99231.91;5030669;28;20044;-51
2022/05/25 10:28:29;;;;;;;2.17;1.98;;;;;;;33.54;12.43;99227.81;5033763;28;20099;-51
2022/05/25 10:37:00;;;;;;;1.92;1.70;;;;;;;35.42;11.05;99227.97;5036178;28;20484;-57
2022/05/25 10:39:28;;;;;;;;;;;;;;;35.60;11.26;99222.56;5018797;28;20037;-57
2022/05/25 10:42:45;;;;;;;4.88;1.90;;;;;;;34.54;10.97;99213.72;5039192;28;19931;-60
2022/05/25 10:45:18;;;;;;;4.07;1.98;;;;;;;33.26;11.60;99201.13;5034482;28;20033;-59
2022/05/25 10:47:54;;;;;;;2.03;1.65;;;;;;;32.11;12.12;99216.69;5030428;28;20049;-51
2022/05/25 10:50:25;;;;;;;3.35;1.70;;;;;;;30.60;12.83;99203.91;5033025;28;20058;-58
2022/05/25 10:53:20;;;;;;;2.10;1.90;;;;;;;31.59;12.46;99202.00;5031997;28;20464;-59
2022/05/25 10:56:04;;;;;;;2.20;1.80;;;;;;;32.29;12.38;99206.22;5030875;28;20576;-60
2022/05/25 10:59:08;;;;;;;2.83;2.00;;;;;;;31.49;12.11;99204.19;5030853;28;20045;-59
2022/05/25 11:01:52;;;;;;;4.80;1.90;;;;;;;29.99;13.48;99193.75;5029729;28;20135;-58
2022/05/25 11:04:39;;;;;;;2.42;1.55;;;;;;;29.61;13.65;99198.41;5030715;28;20049;-59
2022/05/25 11:07:05;;;;;;;1.90;1.80;;;;;;;30.34;13.47;99194.75;5031649;28;20045;-59
2022/05/25 11:09:52;;;;;;;6.30;1.92;;;;;;;31.34;12.78;99190.06;5014093;28;20080;-59
2022/05/25 11:12:33;;;;;;;3.47;1.58;;;;;;;30.07;13.96;99183.75;5031418;28;20508;-59
2022/05/25 11:15:18;;;;;;;2.80;2.13;;;;;;;28.78;14.69;99172.66;5029278;28;20041;-57
2022/05/25 11:18:01;;;;;;;10.57;8.15;;;;;;;29.68;13.96;99167.16;5032681;28;20072;-59
2022/05/25 11:20:43;;;;;;;4.75;2.90;;;;;;;31.65;13.33;99170.81;5029804;28;20063;-60
2022/05/25 11:23:31;;;;;;;6.60;1.73;;;;;;;32.87;12.67;99166.13;5029483;28;20141;-59
2022/05/25 11:26:21;;;;;;;3.42;1.80;;;;;;;33.19;12.18;99167.97;5028030;28;20053;-59
2022/05/25 11:28:49;;;;;;;4.20;1.90;;;;;;;33.24;11.94;99168.16;5039985;28;20044;-59
2022/05/25 11:31:39;;;;;;;4.50;1.83;;;;;;;33.98;11.68;99167.69;5036870;28;20059;-58
2022/05/25 11:34:24;;;;;;;4.25;1.92;;;;;;;33.67;11.47;99176.53;5030638;28;20449;-58
2022/05/25 11:36:57;;;;;;;6.72;2.80;;;;;;;34.26;11.52;99170.91;5025475;28;20041;-58
2022/05/25 11:39:25;;;;;;;3.28;2.03;;;;;;;35.13;11.53;99180.81;5030671;28;20516;-58
2022/05/25 11:42:00;;;;;;;2.15;2.00;;;;;;;34.92;10.89;99162.28;5030671;28;20033;-58
2022/05/25 11:44:41;;;;;;;2.30;2.10;;;;;;;35.35;11.05;99178.53;5029809;28;20517;-58
2022/05/25 11:47:43;;;;;;;2.75;2.22;;;;;;;35.39;11.01;99176.19;5031728;28;20037;-59
2022/05/25 11:50:12;;;;;;;4.20;2.00;;;;;;;35.73;10.62;99189.16;5028961;28;20048;-59
2022/05/25 11:53:00;;;;;;;5.10;2.08;;;;;;;35.33;10.42;99169.81;5031087;28;21743;-57
2022/05/25 11:55:47;;;;;;;2.58;2.10;;;;;;;34.26;11.14;99181.69;5039332;28;20525;-58
2022/05/25 11:58:19;;;;;;;2.92;1.70;;;;;;;32.77;11.70;99180.00;5030131;28;20084;-59
2022/05/25 12:00:54;;;;;;;1.98;1.88;;;;;;;31.57;12.56;99174.47;5030251;28;20037;-57
2022/05/25 12:03:24;;;;;;;3.38;2.03;;;;;;;30.20;13.69;99159.72;5026766;28;20049;-58
2022/05/25 12:05:57;;;;;;;5.32;1.60;;;;;;;29.71;13.79;99164.09;5029613;28;20112;-59
2022/05/25 12:08:43;;;;;;;2.10;1.60;;;;;;;28.21;14.51;99170.38;5028026;28;20041;-58
2022/05/25 12:11:15;;;;;;;2.55;1.60;;;;;;;26.54;15.56;99159.84;5002630;28;20404;-58
2022/05/25 12:13:50;;;;;;;3.08;1.67;;;;;;;27.42;15.15;99153.72;5045125;28;20132;-60
2022/05/25 12:16:21;;;;;;;4.50;1.70;;;;;;;28.51;14.42;99155.28;5005288;28;20064;-60
2022/05/25 12:19:00;;;;;;;1.75;1.60;;;;;;;27.61;15.11;99148.00;5039484;28;20076;-58